createdAt,value
2023-04-17T00:00:28.494Z,22.85
2023-04-17T00:02:30.096Z,24.02
2023-04-17T00:04:32.367Z,27.50
2023-04-17T00:06:33.896Z,28.17
2023-04-17T00:08:35.611Z,28.83
2023-04-17T00:10:37.014Z,33.00
2023-04-17T00:12:38.491Z,30.02
2023-04-17T00:14:40.066Z,31.08
2023-04-17T00:16:41.560Z,39.22
2023-04-17T00:18:42.986Z,35.75
2023-04-17T00:20:44.599Z,33.13
2023-04-17T00:22:46.250Z,34.33
2023-04-17T00:24:48.956Z,35.58
2023-04-17T00:26:50.747Z,40.17
2023-04-17T00:28:52.263Z,37.70
2023-04-17T00:30:53.734Z,71.43
2023-04-17T00:32:55.139Z,61.17
2023-04-17T00:34:56.570Z,32.65
2023-04-17T00:36:59.238Z,34.33
2023-04-17T00:39:00.657Z,30.83
2023-04-17T00:41:02.202Z,31.30
2023-04-17T00:43:04.061Z,28.17
2023-04-17T00:45:06.104Z,28.88
2023-04-17T00:47:07.657Z,28.25
2023-04-17T00:49:10.502Z,28.00
2023-04-17T00:51:12.217Z,29.90
2023-04-17T00:53:14.280Z,28.65
2023-04-17T00:55:15.727Z,30.25
2023-04-17T00:57:17.512Z,44.15
2023-04-17T00:59:19.013Z,33.30
2023-04-17T01:01:22.369Z,35.08
2023-04-17T01:03:24.037Z,33.65
2023-04-17T01:05:26.169Z,33.13
2023-04-17T01:07:27.765Z,39.42
2023-04-17T01:09:29.223Z,38.15
2023-04-17T01:11:30.800Z,35.42
2023-04-17T01:13:32.249Z,35.67
2023-04-17T01:15:34.059Z,37.70
2023-04-17T01:17:35.780Z,34.95
2023-04-17T01:19:37.268Z,93.53
2023-04-17T01:21:38.652Z,45.78
2023-04-17T01:23:42.932Z,71.60
2023-04-17T01:25:44.413Z,32.17
2023-04-17T01:27:45.861Z,41.53
2023-04-17T01:29:47.990Z,42.80
2023-04-17T01:31:49.557Z,41.97
2023-04-17T01:33:51.301Z,34.53
2023-04-17T01:35:52.702Z,35.78
2023-04-17T01:37:54.090Z,41.15
2023-04-17T01:39:56.006Z,35.05
2023-04-17T01:41:57.434Z,40.45
2023-04-17T01:43:58.932Z,73.13
2023-04-17T01:46:00.449Z,42.53
2023-04-17T01:48:01.965Z,33.55
2023-04-17T01:50:04.208Z,53.03
2023-04-17T01:52:06.246Z,47.25
2023-04-17T01:54:07.720Z,36.47
2023-04-17T01:56:09.217Z,52.22
2023-04-17T01:58:10.603Z,38.97
2023-04-17T02:00:12.426Z,49.53
2023-04-17T02:02:13.997Z,37.60
2023-04-17T02:04:15.570Z,41.78
2023-04-17T02:06:17.057Z,38.50
2023-04-17T02:08:18.513Z,40.40
2023-04-17T02:10:19.935Z,41.65
2023-04-17T02:12:21.381Z,39.50
2023-04-17T02:14:22.843Z,36.58
2023-04-17T02:16:24.366Z,44.20
2023-04-17T02:18:26.573Z,40.78
2023-04-17T02:20:28.063Z,41.78
2023-04-17T02:22:29.489Z,44.80
2023-04-17T02:24:31.507Z,30.63
2023-04-17T02:26:33.045Z,33.05
2023-04-17T02:28:34.511Z,59.92
2023-04-17T02:30:35.965Z,41.00
2023-04-17T02:32:37.480Z,40.72
2023-04-17T02:34:38.956Z,35.03
2023-04-17T02:36:40.401Z,32.60
2023-04-17T02:38:41.809Z,34.58
2023-04-17T02:40:43.241Z,33.28
2023-04-17T02:42:44.651Z,33.38
2023-04-17T02:44:46.637Z,32.60
2023-04-17T02:46:48.107Z,31.30
2023-04-17T02:48:49.593Z,33.70
2023-04-17T02:50:51.189Z,35.90
2023-04-17T02:52:52.629Z,34.38
2023-04-17T02:54:54.780Z,34.78
2023-04-17T02:56:58.630Z,34.08
2023-04-17T02:59:00.044Z,35.80
2023-04-17T03:01:02.499Z,32.85
2023-04-17T03:03:04.959Z,32.17
2023-04-17T03:05:07.145Z,34.78
2023-04-17T03:07:10.403Z,34.97
2023-04-17T03:09:12.560Z,36.17
2023-04-17T03:11:14.120Z,37.97
2023-04-17T03:13:15.628Z,40.40
2023-04-17T03:15:17.385Z,60.00
2023-04-17T03:17:20.503Z,47.53
2023-04-17T03:19:21.982Z,39.47
2023-04-17T03:21:23.408Z,36.78
2023-04-17T03:23:24.876Z,36.80
2023-04-17T03:25:26.309Z,44.38
2023-04-17T03:27:27.714Z,42.40
2023-04-17T03:29:29.194Z,42.92
2023-04-17T03:31:30.706Z,45.25
2023-04-17T03:33:32.106Z,43.13
2023-04-17T03:35:33.566Z,47.33
2023-04-17T03:37:34.977Z,57.92
2023-04-17T03:39:36.425Z,55.53
2023-04-17T03:41:38.688Z,54.67
2023-04-17T03:43:40.113Z,63.40
2023-04-17T03:45:41.570Z,56.55
2023-04-17T03:47:43.047Z,43.33
2023-04-17T03:49:44.510Z,40.67
2023-04-17T03:51:45.977Z,41.67
2023-04-17T03:53:47.387Z,45.33
2023-04-17T03:55:48.828Z,45.28
2023-04-17T03:57:51.709Z,48.60
2023-04-17T03:59:53.111Z,32.90
2023-04-17T04:01:54.533Z,53.92
2023-04-17T04:03:56.117Z,34.25
2023-04-17T04:05:57.575Z,46.00
2023-04-17T04:07:59.073Z,42.83
2023-04-17T04:10:00.611Z,35.78
2023-04-17T04:12:02.050Z,42.42
2023-04-17T04:14:03.497Z,32.38
2023-04-17T04:16:05.053Z,46.25
2023-04-17T04:18:06.608Z,47.92
2023-04-17T04:20:09.111Z,44.53
2023-04-17T04:22:13.574Z,43.00
2023-04-17T04:24:15.150Z,48.53
2023-04-17T04:26:17.091Z,37.85
2023-04-17T04:28:18.510Z,36.33
2023-04-17T04:30:21.592Z,37.03
2023-04-17T04:32:25.744Z,39.20
2023-04-17T04:34:30.009Z,43.03
2023-04-17T04:36:31.549Z,40.63
2023-04-17T04:38:33.246Z,50.03
2023-04-17T04:40:38.441Z,60.97
2023-04-17T04:42:41.991Z,49.05
2023-04-17T04:44:43.400Z,50.83
2023-04-17T04:46:45.205Z,47.42
2023-04-17T04:48:46.674Z,33.83
2023-04-17T04:50:48.058Z,32.85
2023-04-17T04:52:49.454Z,27.75
2023-04-17T04:54:51.521Z,28.65
2023-04-17T04:56:53.135Z,42.20
2023-04-17T04:58:55.447Z,27.02
2023-04-17T05:00:56.965Z,43.17
2023-04-17T05:02:58.644Z,25.92
2023-04-17T05:05:00.439Z,37.25
2023-04-17T05:07:02.189Z,37.83
2023-04-17T05:09:03.674Z,41.85
2023-04-17T05:11:05.182Z,50.88
2023-04-17T05:13:06.638Z,35.90
2023-04-17T05:15:08.315Z,43.22
2023-04-17T05:17:09.940Z,27.05
2023-04-17T05:19:11.842Z,18.30
2023-04-17T05:21:13.546Z,27.00
2023-04-17T05:23:15.030Z,31.40
2023-04-17T05:25:16.689Z,23.35
2023-04-17T05:27:18.121Z,40.58
2023-04-17T05:29:19.695Z,28.85
2023-04-17T05:31:22.206Z,22.92
2023-04-17T05:33:23.915Z,34.50
2023-04-17T05:35:25.390Z,21.40
2023-04-17T05:37:26.794Z,31.30
2023-04-17T05:39:28.205Z,35.13
2023-04-17T05:41:30.744Z,35.35
2023-04-17T05:43:32.157Z,41.50
2023-04-17T05:45:33.611Z,29.13
2023-04-17T05:47:35.127Z,47.40
2023-04-17T05:49:36.561Z,42.20
2023-04-17T05:51:37.986Z,33.40
2023-04-17T05:53:39.439Z,38.80
2023-04-17T05:55:41.107Z,40.28
2023-04-17T05:57:42.523Z,53.05
2023-04-17T05:59:44.105Z,48.00
2023-04-17T06:01:45.510Z,46.88
2023-04-17T06:03:47.309Z,39.40
2023-04-17T06:05:49.008Z,40.35
2023-04-17T06:07:50.475Z,27.17
2023-04-17T06:09:51.965Z,36.85
2023-04-17T06:11:53.907Z,26.63
2023-04-17T06:13:55.399Z,18.52
2023-04-17T06:15:56.827Z,30.90
2023-04-17T06:17:58.327Z,34.53
2023-04-17T06:19:59.812Z,26.50
2023-04-17T06:22:01.241Z,29.60
2023-04-17T06:24:02.697Z,26.85
2023-04-17T06:26:04.113Z,15.43
2023-04-17T06:28:05.564Z,25.50
2023-04-17T06:30:07.272Z,22.27
2023-04-17T06:32:08.761Z,13.23
2023-04-17T06:34:10.334Z,21.67
2023-04-17T06:36:11.777Z,26.58
2023-04-17T06:38:13.236Z,28.05
2023-04-17T06:40:14.756Z,18.75
2023-04-17T06:42:16.512Z,18.70
2023-04-17T06:44:18.452Z,22.95
2023-04-17T06:46:19.960Z,22.25
2023-04-17T06:48:21.501Z,24.88
2023-04-17T06:50:22.987Z,26.08
2023-04-17T06:52:24.435Z,22.17
2023-04-17T06:54:26.061Z,21.08
2023-04-17T06:56:27.526Z,23.17
2023-04-17T06:58:28.880Z,19.55
2023-04-17T07:00:30.600Z,20.48
2023-04-17T07:02:32.500Z,18.83
2023-04-17T07:04:34.152Z,21.45
2023-04-17T07:06:36.546Z,22.33
2023-04-17T07:08:38.311Z,24.13
2023-04-17T07:10:39.772Z,22.00
2023-04-17T07:12:41.473Z,18.90
2023-04-17T07:14:42.947Z,20.20
2023-04-17T07:16:44.456Z,26.55
2023-04-17T07:18:45.884Z,24.40
2023-04-17T07:20:50.039Z,22.55
2023-04-17T07:22:51.697Z,16.38
2023-04-17T07:24:53.140Z,16.80
2023-04-17T07:26:54.616Z,16.58
2023-04-17T07:28:56.056Z,18.63
2023-04-17T07:30:58.251Z,19.83
2023-04-17T07:33:00.446Z,23.02
2023-04-17T07:35:02.084Z,27.20
2023-04-17T07:37:03.533Z,23.70
2023-04-17T07:39:06.542Z,23.77
2023-04-17T07:41:08.073Z,19.48
2023-04-17T07:43:09.524Z,24.73
2023-04-17T07:45:11.210Z,24.80
2023-04-17T07:47:12.753Z,20.88
2023-04-17T07:49:14.636Z,13.30
2023-04-17T07:51:16.997Z,20.90
2023-04-17T07:53:18.586Z,23.55
2023-04-17T07:55:20.198Z,20.38
2023-04-17T07:57:22.240Z,22.05
2023-04-17T07:59:23.821Z,14.43
2023-04-17T08:01:26.261Z,21.35
2023-04-17T08:03:28.006Z,19.10
2023-04-17T08:05:29.949Z,18.70
2023-04-17T08:07:31.507Z,20.92
2023-04-17T08:09:33.254Z,13.90
2023-04-17T08:11:40.120Z,15.65
2023-04-17T08:13:51.133Z,23.60
2023-04-17T08:15:54.931Z,22.35
2023-04-17T08:17:58.282Z,16.13
2023-04-17T08:20:02.137Z,20.83
2023-04-17T08:22:04.303Z,21.33
2023-04-17T08:24:05.885Z,22.05
2023-04-17T08:26:07.444Z,15.73
2023-04-17T08:28:08.944Z,17.00
2023-04-17T08:30:13.750Z,18.17
2023-04-17T08:32:16.651Z,15.30
2023-04-17T08:34:18.149Z,12.10
2023-04-17T08:36:19.595Z,17.95
2023-04-17T08:38:21.058Z,18.42
2023-04-17T08:40:24.437Z,18.42
2023-04-17T08:42:26.042Z,16.42
2023-04-17T08:44:27.464Z,15.65
2023-04-17T08:46:30.206Z,14.77
2023-04-17T08:48:31.844Z,14.52
2023-04-17T08:50:33.569Z,11.82
2023-04-17T08:52:51.370Z,14.95
2023-04-17T08:54:52.817Z,15.52
2023-04-17T08:56:54.231Z,22.52
2023-04-17T08:58:55.873Z,15.55
2023-04-17T09:01:07.256Z,11.82
2023-04-17T09:03:11.274Z,12.55
2023-04-17T09:05:20.235Z,13.35
2023-04-17T09:07:29.100Z,13.02
2023-04-17T09:09:49.313Z,15.45
2023-04-17T09:12:10.615Z,9.88
2023-04-17T09:14:29.439Z,14.30
2023-04-17T09:16:34.212Z,15.80
2023-04-17T09:18:36.804Z,12.90
2023-04-17T09:20:48.954Z,15.05
2023-04-17T09:22:58.262Z,11.23
2023-04-17T09:24:59.923Z,13.45
2023-04-17T09:27:21.743Z,10.98
2023-04-17T09:29:23.160Z,12.32
2023-04-17T09:31:26.471Z,10.13
2023-04-17T09:33:28.068Z,11.23
2023-04-17T09:35:29.553Z,16.05
2023-04-17T09:38:00.823Z,8.52
2023-04-17T09:40:04.926Z,11.07
2023-04-17T09:42:06.954Z,24.00
2023-04-17T09:44:09.962Z,17.60
2023-04-17T09:46:11.640Z,16.45
2023-04-17T09:48:13.344Z,19.27
2023-04-17T09:50:18.077Z,20.73
2023-04-17T09:52:20.815Z,19.20
2023-04-17T09:54:23.107Z,17.17
2023-04-17T09:56:26.541Z,14.80
2023-04-17T09:58:27.906Z,14.75
2023-04-17T10:00:29.958Z,15.75
2023-04-17T10:02:32.627Z,16.15
2023-04-17T10:04:35.133Z,16.05
2023-04-17T10:06:36.745Z,17.25
2023-04-17T10:08:38.159Z,15.82
2023-04-17T10:10:39.597Z,24.40
2023-04-17T10:12:41.178Z,22.58
2023-04-17T10:14:46.656Z,16.23
2023-04-17T10:16:49.177Z,18.73
2023-04-17T10:19:10.742Z,17.77
2023-04-17T10:21:19.950Z,11.73
2023-04-17T10:23:31.725Z,27.77
2023-04-17T10:25:33.252Z,12.05
2023-04-17T10:27:34.653Z,17.48
2023-04-17T10:29:52.198Z,12.18
2023-04-17T10:32:27.717Z,14.95
2023-04-17T10:34:35.952Z,15.95
2023-04-17T10:36:40.527Z,16.02
2023-04-17T10:38:44.098Z,19.95
2023-04-17T10:40:46.016Z,17.27
2023-04-17T10:43:23.182Z,23.50
2023-04-17T10:45:24.716Z,18.00
2023-04-17T10:47:33.615Z,16.23
2023-04-17T10:49:51.431Z,16.83
2023-04-17T10:51:52.816Z,17.98
2023-04-17T10:53:54.187Z,16.35
2023-04-17T10:55:57.081Z,9.13
2023-04-17T10:58:05.467Z,11.10
2023-04-17T11:00:16.823Z,6.47
2023-04-17T11:02:33.115Z,7.80
2023-04-17T11:04:34.789Z,11.40
2023-04-17T11:06:37.858Z,5.88
2023-04-17T11:08:39.296Z,7.18
2023-04-17T11:10:40.892Z,8.57
2023-04-17T11:12:45.289Z,8.52
2023-04-17T11:14:46.673Z,6.57
2023-04-17T11:16:49.196Z,7.45
2023-04-17T11:18:52.172Z,7.18
2023-04-17T11:20:53.630Z,7.30
2023-04-17T11:22:55.580Z,7.00
2023-04-17T11:24:57.292Z,9.73
2023-04-17T11:27:00.302Z,10.25
2023-04-17T11:29:01.923Z,8.93
2023-04-17T11:31:03.488Z,11.10
2023-04-17T11:33:06.070Z,7.50
2023-04-17T11:35:09.030Z,6.45
2023-04-17T11:37:13.392Z,8.98
2023-04-17T11:39:15.180Z,14.52
2023-04-17T11:41:16.907Z,8.45
2023-04-17T11:43:19.283Z,11.93
2023-04-17T11:45:20.787Z,9.57
2023-04-17T11:47:23.671Z,8.90
2023-04-17T11:49:29.572Z,7.75
2023-04-17T11:51:31.855Z,10.07
2023-04-17T11:53:34.502Z,11.35
2023-04-17T11:55:36.309Z,11.88
2023-04-17T11:57:41.412Z,13.15
2023-04-17T11:59:44.719Z,7.82
2023-04-17T12:01:52.497Z,12.93
2023-04-17T12:03:54.628Z,10.63
2023-04-17T12:06:03.453Z,12.00
2023-04-17T12:08:07.880Z,11.48
2023-04-17T12:10:09.426Z,11.35
2023-04-17T12:12:11.108Z,10.70
2023-04-17T12:14:13.010Z,14.85
2023-04-17T12:16:14.610Z,11.23
2023-04-17T12:18:16.067Z,11.82
2023-04-17T12:20:17.477Z,12.75
2023-04-17T12:22:19.513Z,12.30
2023-04-17T12:24:22.936Z,8.45
2023-04-17T12:26:25.701Z,12.85
2023-04-17T12:28:27.132Z,15.13
2023-04-17T12:30:28.734Z,16.80
2023-04-17T12:32:30.369Z,11.13
2023-04-17T12:34:31.875Z,10.25
2023-04-17T12:36:33.519Z,14.50
2023-04-17T12:38:35.110Z,14.35
2023-04-17T12:40:36.546Z,11.93
2023-04-17T12:42:48.310Z,11.60
2023-04-17T12:44:50.801Z,10.18
2023-04-17T12:46:52.170Z,11.93
2023-04-17T12:48:58.550Z,10.15
2023-04-17T12:50:59.987Z,11.50
2023-04-17T12:53:01.424Z,11.43
2023-04-17T12:55:03.824Z,16.65
2023-04-17T12:57:05.974Z,12.95
2023-04-17T12:59:07.647Z,12.18
2023-04-17T13:01:09.057Z,13.73
2023-04-17T13:03:10.787Z,12.98
2023-04-17T13:05:12.343Z,13.52
2023-04-17T13:07:13.726Z,10.63
2023-04-17T13:09:16.996Z,24.17
2023-04-17T13:11:18.384Z,20.48
2023-04-17T13:13:19.796Z,10.38
2023-04-17T13:15:21.937Z,9.38
2023-04-17T13:17:24.230Z,12.90
2023-04-17T13:19:25.640Z,12.75
2023-04-17T13:21:27.127Z,14.68
2023-04-17T13:23:29.340Z,8.25
2023-04-17T13:25:31.790Z,10.13
2023-04-17T13:27:33.331Z,8.95
2023-04-17T13:29:34.761Z,12.98
2023-04-17T13:31:37.084Z,12.43
2023-04-17T13:33:40.305Z,11.10
2023-04-17T13:35:41.719Z,11.65
2023-04-17T13:37:43.434Z,10.50
2023-04-17T13:39:44.875Z,11.02
2023-04-17T13:41:46.403Z,13.18
2023-04-17T13:43:47.823Z,11.10
2023-04-17T13:45:49.670Z,14.50
2023-04-17T13:47:51.435Z,11.18
2023-04-17T13:49:52.833Z,15.40
2023-04-17T13:51:54.207Z,18.63
2023-04-17T13:53:58.923Z,13.30
2023-04-17T13:56:00.319Z,11.82
2023-04-17T13:58:01.659Z,15.38
2023-04-17T14:00:03.729Z,12.68
2023-04-17T14:02:05.198Z,18.08
2023-04-17T14:04:06.814Z,9.93
2023-04-17T14:06:08.382Z,15.68
2023-04-17T14:08:09.845Z,11.77
2023-04-17T14:10:11.351Z,13.48
2023-04-17T14:12:16.725Z,14.48
2023-04-17T14:14:18.101Z,14.70
2023-04-17T14:16:19.709Z,12.80
2023-04-17T14:18:21.300Z,9.30
2023-04-17T14:20:22.719Z,11.23
2023-04-17T14:22:24.084Z,14.55
2023-04-17T14:24:25.581Z,13.55
2023-04-17T14:26:26.969Z,12.55
2023-04-17T14:28:28.338Z,23.80
2023-04-17T14:30:29.888Z,13.02
2023-04-17T14:32:31.383Z,13.50
2023-04-17T14:34:32.856Z,18.13
2023-04-17T14:36:34.733Z,16.52
2023-04-17T14:38:36.183Z,26.23
2023-04-17T14:40:37.925Z,22.48
2023-04-17T14:42:51.180Z,15.25
2023-04-17T14:44:55.253Z,19.50
2023-04-17T14:46:57.441Z,17.55
2023-04-17T14:48:58.867Z,18.90
2023-04-17T14:51:01.600Z,16.88
2023-04-17T14:53:04.447Z,24.48
2023-04-17T14:55:06.126Z,17.45
2023-04-17T14:57:07.543Z,15.32
2023-04-17T14:59:08.961Z,18.70
2023-04-17T15:01:10.772Z,21.20
2023-04-17T15:03:12.375Z,22.48
2023-04-17T15:05:17.502Z,20.08
2023-04-17T15:07:18.915Z,38.08
2023-04-17T15:09:20.305Z,35.92
2023-04-17T15:11:21.647Z,21.65
2023-04-17T15:13:23.284Z,16.95
2023-04-17T15:15:24.612Z,27.08
2023-04-17T15:17:26.032Z,19.05
2023-04-17T15:19:27.519Z,22.30
2023-04-17T15:21:28.995Z,24.13
2023-04-17T15:23:30.803Z,42.03
2023-04-17T15:25:32.188Z,18.90
2023-04-17T15:27:33.592Z,29.88
2023-04-17T15:29:35.016Z,16.45
2023-04-17T15:31:40.353Z,22.02
2023-04-17T15:33:42.041Z,56.60
2023-04-17T15:35:43.453Z,14.75
2023-04-17T15:37:44.876Z,14.45
2023-04-17T15:39:46.392Z,15.48
2023-04-17T15:41:47.934Z,15.02
2023-04-17T15:43:49.922Z,8.07
2023-04-17T15:45:51.584Z,15.20
2023-04-17T15:47:53.655Z,15.50
2023-04-17T15:49:55.532Z,15.40
2023-04-17T15:51:56.948Z,22.75
2023-04-17T15:53:58.484Z,12.55
2023-04-17T15:55:59.930Z,13.93
2023-04-17T15:58:01.288Z,10.10
2023-04-17T16:00:02.839Z,13.18
2023-04-17T16:02:04.350Z,9.57
2023-04-17T16:04:06.006Z,23.80
2023-04-17T16:06:08.095Z,20.98
2023-04-17T16:08:09.480Z,11.60
2023-04-17T16:10:14.703Z,10.65
2023-04-17T16:12:16.233Z,9.40
2023-04-17T16:14:17.795Z,40.50
2023-04-17T16:16:19.214Z,24.50
2023-04-17T16:18:20.626Z,29.67
2023-04-17T16:20:22.107Z,17.83
2023-04-17T16:22:23.627Z,16.33
2023-04-17T16:24:25.695Z,20.80
2023-04-17T16:26:27.049Z,14.60
2023-04-17T16:28:28.477Z,17.92
2023-04-17T16:30:29.942Z,9.35
2023-04-17T16:32:31.992Z,10.32
2023-04-17T16:34:33.562Z,13.48
2023-04-17T16:36:34.943Z,7.95
2023-04-17T16:38:36.318Z,11.68
2023-04-17T16:40:37.728Z,14.75
2023-04-17T16:42:39.210Z,12.52
2023-04-17T16:44:40.906Z,20.63
2023-04-17T16:46:59.219Z,15.32
2023-04-17T16:49:04.579Z,17.35
2023-04-17T16:51:06.354Z,17.05
2023-04-17T16:53:07.875Z,18.88
2023-04-17T16:55:09.630Z,12.57
2023-04-17T16:57:11.181Z,12.20
2023-04-17T16:59:12.844Z,9.77
2023-04-17T17:01:14.506Z,13.80
2023-04-17T17:03:16.602Z,10.80
2023-04-17T17:05:18.132Z,14.60
2023-04-17T17:07:19.478Z,15.00
2023-04-17T17:09:20.824Z,20.75
2023-04-17T17:11:22.269Z,13.25
2023-04-17T17:13:24.142Z,16.02
2023-04-17T17:15:25.639Z,18.75
2023-04-17T17:17:27.063Z,18.38
2023-04-17T17:19:28.454Z,12.75
2023-04-17T17:21:29.868Z,18.70
2023-04-17T17:23:32.248Z,18.35
2023-04-17T17:25:33.585Z,12.93
2023-04-17T17:27:34.980Z,10.38
2023-04-17T17:29:36.311Z,18.65
2023-04-17T17:31:37.768Z,16.38
2023-04-17T17:33:39.188Z,19.67
2023-04-17T17:35:40.753Z,22.52
2023-04-17T17:37:42.491Z,18.25
2023-04-17T17:39:43.876Z,18.95
2023-04-17T17:41:47.244Z,19.65
2023-04-17T17:43:48.999Z,20.05
2023-04-17T17:45:50.721Z,22.40
2023-04-17T17:47:53.116Z,23.40
2023-04-17T17:49:54.585Z,21.33
2023-04-17T17:51:55.950Z,22.58
2023-04-17T17:53:57.345Z,23.17
2023-04-17T17:55:58.751Z,27.65
2023-04-17T17:58:00.190Z,17.38
2023-04-17T18:00:01.699Z,32.50
2023-04-17T18:02:03.264Z,19.63
2023-04-17T18:04:05.168Z,18.25
2023-04-17T18:06:06.753Z,164.43
2023-04-17T18:08:08.130Z,24.02
2023-04-17T18:10:09.709Z,21.15
2023-04-17T18:12:11.077Z,25.27
2023-04-17T18:14:12.559Z,22.77
2023-04-17T18:16:14.186Z,24.92
2023-04-17T18:18:15.666Z,33.05
2023-04-17T18:20:17.084Z,24.77
2023-04-17T18:22:20.438Z,17.23
2023-04-17T18:24:21.848Z,22.17
2023-04-17T18:26:23.300Z,26.48
2023-04-17T18:28:24.901Z,26.70
2023-04-17T18:30:26.245Z,27.70
2023-04-17T18:32:27.642Z,30.42
2023-04-17T18:34:29.081Z,22.50
2023-04-17T18:36:30.895Z,19.15
2023-04-17T18:38:32.364Z,19.35
2023-04-17T18:40:33.802Z,24.08
2023-04-17T18:42:35.157Z,26.77
2023-04-17T18:44:36.524Z,31.58
2023-04-17T18:46:37.942Z,29.33
2023-04-17T18:48:39.442Z,26.30
2023-04-17T18:50:40.849Z,21.98
2023-04-17T18:52:46.274Z,43.35
2023-04-17T18:54:50.906Z,24.50
2023-04-17T18:56:52.328Z,26.48
2023-04-17T18:58:53.717Z,27.17
2023-04-17T19:00:55.213Z,26.08
2023-04-17T19:02:56.796Z,25.67
2023-04-17T19:04:58.254Z,32.50
2023-04-17T19:06:59.725Z,29.67
2023-04-17T19:09:01.092Z,23.85
2023-04-17T19:11:02.949Z,26.95
2023-04-17T19:13:09.652Z,22.75
2023-04-17T19:15:11.287Z,33.10
2023-04-17T19:17:12.764Z,23.15
2023-04-17T19:19:15.447Z,34.92
2023-04-17T19:21:17.160Z,24.85
2023-04-17T19:23:18.573Z,26.50
2023-04-17T19:25:20.002Z,39.45
2023-04-17T19:27:21.485Z,29.88
2023-04-17T19:29:22.844Z,20.50
2023-04-17T19:31:24.271Z,35.17
2023-04-17T19:33:25.764Z,18.20
2023-04-17T19:35:27.207Z,20.35
2023-04-17T19:37:28.606Z,15.60
2023-04-17T19:39:30.076Z,24.02
2023-04-17T19:41:31.501Z,20.58
2023-04-17T19:43:32.874Z,27.92
2023-04-17T19:45:34.819Z,33.85
2023-04-17T19:47:37.267Z,22.27
2023-04-17T19:49:38.901Z,14.23
2023-04-17T19:51:40.459Z,13.98
2023-04-17T19:53:42.674Z,16.92
2023-04-17T19:55:44.075Z,16.23
2023-04-17T19:57:45.576Z,18.30
2023-04-17T19:59:47.009Z,14.73
2023-04-17T20:01:48.799Z,11.77
2023-04-17T20:03:50.763Z,17.25
2023-04-17T20:05:52.657Z,19.95
2023-04-17T20:07:54.109Z,19.42
2023-04-17T20:09:55.554Z,26.13
2023-04-17T20:11:56.923Z,11.55
2023-04-17T20:13:58.344Z,16.48
2023-04-17T20:15:59.762Z,19.13
2023-04-17T20:18:01.186Z,21.42
2023-04-17T20:20:02.671Z,17.63
2023-04-17T20:22:04.181Z,17.27
2023-04-17T20:24:05.877Z,24.58
2023-04-17T20:26:08.145Z,21.50
2023-04-17T20:28:09.731Z,17.23
2023-04-17T20:30:11.404Z,21.10
2023-04-17T20:32:12.779Z,16.40
2023-04-17T20:34:14.338Z,13.65
2023-04-17T20:36:15.894Z,12.38
2023-04-17T20:38:17.341Z,10.90
2023-04-17T20:40:19.453Z,19.52
2023-04-17T20:42:20.957Z,21.35
2023-04-17T20:44:22.393Z,19.70
2023-04-17T20:46:23.877Z,15.15
2023-04-17T20:48:25.615Z,13.07
2023-04-17T20:50:27.122Z,18.58
2023-04-17T20:52:29.064Z,18.83
2023-04-17T20:54:30.607Z,12.15
2023-04-17T20:56:32.124Z,8.60
2023-04-17T20:58:33.542Z,10.48
2023-04-17T21:00:34.993Z,11.40
2023-04-17T21:02:36.826Z,12.60
2023-04-17T21:04:38.295Z,19.30
2023-04-17T21:06:39.726Z,14.40
2023-04-17T21:08:41.225Z,21.23
2023-04-17T21:10:42.749Z,16.13
2023-04-17T21:12:44.161Z,24.20
2023-04-17T21:14:45.707Z,17.40
2023-04-17T21:16:47.263Z,9.18
2023-04-17T21:18:48.719Z,10.98
2023-04-17T21:20:50.226Z,10.57
2023-04-17T21:22:51.622Z,10.10
2023-04-17T21:24:53.081Z,12.30
2023-04-17T21:26:58.488Z,10.38
2023-04-17T21:28:59.937Z,16.50
2023-04-17T21:31:01.383Z,19.42
2023-04-17T21:33:03.375Z,13.15
2023-04-17T21:35:05.135Z,15.05
2023-04-17T21:37:06.616Z,14.93
2023-04-17T21:39:08.686Z,12.30
2023-04-17T21:41:10.113Z,14.85
2023-04-17T21:43:11.572Z,19.90
2023-04-17T21:45:14.243Z,17.52
2023-04-17T21:47:16.603Z,18.98
2023-04-17T21:49:18.005Z,18.02
2023-04-17T21:51:19.406Z,12.45
2023-04-17T21:53:20.862Z,11.77
2023-04-17T21:55:22.242Z,10.32
2023-04-17T21:57:23.650Z,12.38
2023-04-17T21:59:25.101Z,11.45
2023-04-17T22:01:26.653Z,10.38
2023-04-17T22:03:28.216Z,10.77
2023-04-17T22:05:29.688Z,10.80
2023-04-17T22:07:35.940Z,9.63
2023-04-17T22:09:42.406Z,11.35
2023-04-17T22:11:43.824Z,12.98
2023-04-17T22:13:47.094Z,15.40
2023-04-17T22:15:48.637Z,14.75
2023-04-17T22:17:50.166Z,19.55
2023-04-17T22:19:51.739Z,18.95
2023-04-17T22:21:53.181Z,16.52
2023-04-17T22:23:54.741Z,13.07
2023-04-17T22:25:56.147Z,11.98
2023-04-17T22:27:57.524Z,12.40
2023-04-17T22:29:58.955Z,21.33
2023-04-17T22:32:00.367Z,16.77
2023-04-17T22:34:01.822Z,20.88
2023-04-17T22:36:03.432Z,15.13
2023-04-17T22:38:04.842Z,15.27
2023-04-17T22:40:06.701Z,15.35
2023-04-17T22:42:08.229Z,15.05
2023-04-17T22:44:09.664Z,14.20
2023-04-17T22:46:11.163Z,17.30
2023-04-17T22:48:12.667Z,20.75
2023-04-17T22:50:14.297Z,23.35
2023-04-17T22:52:15.873Z,11.23
2023-04-17T22:54:22.604Z,19.63
2023-04-17T22:56:24.822Z,18.05
2023-04-17T22:58:26.259Z,18.33
2023-04-17T23:00:27.670Z,16.48
2023-04-17T23:02:29.164Z,17.92
2023-04-17T23:04:30.768Z,14.30
2023-04-17T23:06:32.315Z,19.02
2023-04-17T23:08:33.720Z,18.02
2023-04-17T23:10:35.111Z,18.60
2023-04-17T23:12:36.515Z,20.65
2023-04-17T23:14:37.915Z,12.10
2023-04-17T23:16:39.329Z,12.77
2023-04-17T23:18:40.824Z,14.75
2023-04-17T23:20:42.241Z,12.57
2023-04-17T23:22:43.789Z,10.13
2023-04-17T23:24:45.565Z,17.50
2023-04-17T23:26:48.539Z,20.27
2023-04-17T23:28:50.040Z,15.20
2023-04-17T23:30:51.422Z,20.52
2023-04-17T23:32:53.747Z,23.00
2023-04-17T23:34:55.327Z,17.30
2023-04-17T23:36:56.769Z,15.55
2023-04-17T23:38:58.193Z,20.02
2023-04-17T23:40:59.609Z,19.42
2023-04-17T23:43:01.096Z,10.80
2023-04-17T23:45:02.522Z,14.38
2023-04-17T23:47:04.152Z,18.33
2023-04-17T23:49:06.938Z,16.48
2023-04-17T23:51:09.019Z,18.73
2023-04-17T23:53:10.453Z,17.02
2023-04-17T23:55:11.891Z,12.65
2023-04-17T23:57:13.413Z,9.82
2023-04-17T23:59:14.894Z,11.00
